Terminal Aerodrome Forecast
Issued by NWS Milwaukee/Sullivan, WI

Home | Current Version | Previous Version | Text Only | Print | Product List | Glossary On
Versions: 1 2 3 4 5 6 7 8 9 10 11 12 13 14 15 16 17 18 19 20 21 22 23 24 25 26
000
FTUS43 KMKX 292322
TAFMKE
TAF
KMKE 292322Z 3000/0106 04013G22KT P6SM SCT015 BKN045
     FM300600 03012G18KT P6SM VCSH SCT015 OVC025
     FM301100 04012G20KT P6SM -SHRA BKN015 OVC020
     FM301700 04013G22KT 6SM -SHRA SCT010 OVC020
     FM302000 04015G22KT 5SM -SHRA OVC015
     FM010000 04011G20KT 5SM SHRA SCT008 OVC015=

USA.gov is the U.S. government's official web portal to all federal, state and local government web resources and services.